createdAt,value
2023-04-20T00:00:11.629Z,7.70
2023-04-20T00:02:39.984Z,7.60
2023-04-20T00:05:09.862Z,7.50
2023-04-20T00:07:40.611Z,7.50
2023-04-20T00:10:08.978Z,7.40
2023-04-20T00:12:36.360Z,7.40
2023-04-20T00:15:03.716Z,7.40
2023-04-20T00:17:31.479Z,7.30
2023-04-20T00:19:58.561Z,7.30
2023-04-20T00:22:26.510Z,7.30
2023-04-20T00:24:53.625Z,7.30
2023-04-20T00:27:20.654Z,7.30
2023-04-20T00:29:47.694Z,7.30
2023-04-20T00:32:14.686Z,7.20
2023-04-20T00:34:41.730Z,7.10
2023-04-20T00:37:08.744Z,7.10
2023-04-20T00:39:35.887Z,7.10
2023-04-20T00:42:07.813Z,7.10
2023-04-20T00:44:35.639Z,7.10
2023-04-20T00:47:02.776Z,7.10
2023-04-20T00:49:31.913Z,7.00
2023-04-20T00:51:59.896Z,7.00
2023-04-20T00:54:31.052Z,6.90
2023-04-20T00:57:00.121Z,6.80
2023-04-20T00:59:27.155Z,6.90
2023-04-20T01:01:54.622Z,6.80
2023-04-20T01:04:21.996Z,6.80
2023-04-20T01:06:49.157Z,6.70
2023-04-20T01:09:16.535Z,6.70
2023-04-20T01:11:43.997Z,6.60
2023-04-20T01:14:11.181Z,6.60
2023-04-20T01:16:38.176Z,6.60
2023-04-20T01:19:05.543Z,6.60
2023-04-20T01:21:32.828Z,6.60
2023-04-20T01:23:59.928Z,6.60
2023-04-20T01:26:27.549Z,6.60
2023-04-20T01:28:54.576Z,6.60
2023-04-20T01:31:22.274Z,6.50
2023-04-20T01:33:49.898Z,6.50
2023-04-20T01:36:16.968Z,6.50
2023-04-20T01:38:43.970Z,6.50
2023-04-20T01:41:11.590Z,6.40
2023-04-20T01:43:39.565Z,6.40
2023-04-20T01:46:07.329Z,6.40
2023-04-20T01:48:34.818Z,6.30
2023-04-20T01:51:02.050Z,6.40
2023-04-20T01:53:29.266Z,6.40
2023-04-20T01:55:56.302Z,6.40
2023-04-20T01:58:23.523Z,6.40
2023-04-20T02:00:50.632Z,6.40
2023-04-20T02:03:18.140Z,6.40
2023-04-20T02:05:45.350Z,6.50
2023-04-20T02:08:12.431Z,6.40
2023-04-20T02:10:39.666Z,6.40
2023-04-20T02:13:07.183Z,6.40
2023-04-20T02:15:34.220Z,6.40
2023-04-20T02:18:01.456Z,6.30
2023-04-20T02:20:28.604Z,6.40
2023-04-20T02:22:55.770Z,6.40
2023-04-20T02:25:22.802Z,6.40
2023-04-20T02:27:50.020Z,6.40
2023-04-20T02:30:17.005Z,6.30
2023-04-20T02:32:44.730Z,6.30
2023-04-20T02:37:49.929Z,6.20
2023-04-20T02:40:16.863Z,6.10
2023-04-20T02:42:43.827Z,6.00
2023-04-20T02:45:11.449Z,6.00
2023-04-20T02:47:38.430Z,5.90
2023-04-20T02:50:06.358Z,5.90
2023-04-20T02:52:33.372Z,5.90
2023-04-20T02:55:00.653Z,5.90
2023-04-20T02:57:27.674Z,5.90
2023-04-20T02:59:54.620Z,5.80
2023-04-20T03:02:21.769Z,5.80
2023-04-20T03:04:48.872Z,5.70
2023-04-20T03:07:16.960Z,5.70
2023-04-20T03:09:43.947Z,5.60
2023-04-20T03:12:10.910Z,5.70
2023-04-20T03:14:37.849Z,5.60
2023-04-20T03:17:04.774Z,5.60
2023-04-20T03:19:31.703Z,5.60
2023-04-20T03:21:58.661Z,5.60
2023-04-20T03:24:25.661Z,5.60
2023-04-20T03:26:52.557Z,5.60
2023-04-20T03:29:19.725Z,5.60
2023-04-20T03:31:47.004Z,5.70
2023-04-20T03:34:14.029Z,5.70
2023-04-20T03:36:41.038Z,5.70
2023-04-20T03:39:08.202Z,5.70
2023-04-20T03:41:35.332Z,5.80
2023-04-20T03:44:02.281Z,5.80
2023-04-20T03:46:29.304Z,5.80
2023-04-20T03:48:56.374Z,5.80
2023-04-20T03:51:23.352Z,5.90
2023-04-20T03:53:50.420Z,6.10
2023-04-20T03:56:17.453Z,6.50
2023-04-20T03:58:44.490Z,6.90
2023-04-20T04:01:13.439Z,7.30
2023-04-20T04:03:40.717Z,7.70
2023-04-20T04:06:09.878Z,8.00
2023-04-20T04:08:36.771Z,8.40
2023-04-20T04:11:03.879Z,8.60
2023-04-20T04:13:32.497Z,8.80
2023-04-20T04:16:01.058Z,9.10
2023-04-20T04:18:32.445Z,9.40
2023-04-20T04:20:59.896Z,9.60
2023-04-20T04:23:26.807Z,9.80
2023-04-20T04:25:54.218Z,10.00
2023-04-20T04:28:21.680Z,10.30
2023-04-20T04:30:48.602Z,10.50
2023-04-20T04:33:15.567Z,10.70
2023-04-20T04:35:45.690Z,10.70
2023-04-20T04:38:14.151Z,10.80
2023-04-20T04:40:41.881Z,11.00
2023-04-20T04:43:10.365Z,11.10
2023-04-20T04:45:41.199Z,11.50
2023-04-20T04:48:12.539Z,12.00
2023-04-20T04:50:39.917Z,12.40
2023-04-20T04:53:07.469Z,12.70
2023-04-20T04:55:34.681Z,12.90
2023-04-20T04:58:01.942Z,13.10
2023-04-20T05:00:29.546Z,13.40
2023-04-20T05:02:56.984Z,13.30
2023-04-20T05:07:57.324Z,13.40
2023-04-20T05:10:24.249Z,13.40
2023-04-20T05:12:52.467Z,13.80
2023-04-20T05:15:19.493Z,14.20
2023-04-20T05:17:46.506Z,14.40
2023-04-20T05:20:14.080Z,14.70
2023-04-20T05:22:41.237Z,14.80
2023-04-20T05:25:08.912Z,14.90
2023-04-20T05:27:36.167Z,14.70
2023-04-20T05:30:18.907Z,14.80
2023-04-20T05:32:50.014Z,14.90
2023-04-20T05:35:18.460Z,14.90
2023-04-20T05:37:45.499Z,15.20
2023-04-20T05:40:12.548Z,15.50
2023-04-20T05:42:39.545Z,15.70
2023-04-20T05:45:07.065Z,15.80
2023-04-20T05:47:34.098Z,16.00
2023-04-20T05:50:01.074Z,16.30
2023-04-20T05:52:28.023Z,16.30
2023-04-20T05:54:54.958Z,16.50
2023-04-20T05:57:23.642Z,16.60
2023-04-20T05:59:50.723Z,16.50
2023-04-20T06:02:17.666Z,16.30
2023-04-20T06:04:44.888Z,16.50
2023-04-20T06:07:11.942Z,16.50
2023-04-20T06:09:38.879Z,16.50
2023-04-20T06:12:05.996Z,16.60
2023-04-20T06:14:32.958Z,16.90
2023-04-20T06:16:59.974Z,17.20
2023-04-20T06:19:26.929Z,17.20
2023-04-20T06:21:53.841Z,17.00
2023-04-20T06:24:21.063Z,16.80
2023-04-20T06:26:48.004Z,16.80
2023-04-20T06:29:14.936Z,16.90
2023-04-20T06:31:41.952Z,16.70
2023-04-20T06:34:08.937Z,16.60
2023-04-20T06:36:36.592Z,16.90
2023-04-20T06:39:03.617Z,17.10
2023-04-20T06:41:30.782Z,17.40
2023-04-20T06:43:57.703Z,17.70
2023-04-20T06:46:24.693Z,17.70
2023-04-20T06:48:51.860Z,17.60
2023-04-20T06:51:18.766Z,17.50
2023-04-20T06:53:46.031Z,17.70
2023-04-20T06:56:13.051Z,18.20
2023-04-20T06:58:40.030Z,18.40
2023-04-20T07:01:06.992Z,18.60
2023-04-20T07:03:34.198Z,18.90
2023-04-20T07:06:01.362Z,19.00
2023-04-20T07:08:28.313Z,19.10
2023-04-20T07:10:55.275Z,19.00
2023-04-20T07:13:22.223Z,18.90
2023-04-20T07:15:49.147Z,19.00
2023-04-20T07:18:16.151Z,19.20
2023-04-20T07:20:43.088Z,19.30
2023-04-20T07:23:10.047Z,19.20
2023-04-20T07:25:37.110Z,19.20
2023-04-20T07:28:04.090Z,19.10
2023-04-20T07:30:31.943Z,19.10
2023-04-20T07:32:58.893Z,18.80
2023-04-20T07:35:39.971Z,18.50
2023-04-20T07:38:06.874Z,18.30
2023-04-20T07:40:33.891Z,18.30
2023-04-20T07:43:01.089Z,18.50
2023-04-20T07:45:28.169Z,18.50
2023-04-20T07:47:55.775Z,18.50
2023-04-20T07:50:22.978Z,18.60
2023-04-20T07:52:50.086Z,18.60
2023-04-20T07:55:17.540Z,18.50
2023-04-20T07:57:45.802Z,18.30
2023-04-20T08:00:13.653Z,18.00
2023-04-20T08:02:41.064Z,17.80
2023-04-20T08:05:10.620Z,17.70
2023-04-20T08:07:38.456Z,17.70
2023-04-20T08:10:07.698Z,17.70
2023-04-20T08:12:34.713Z,17.70
2023-04-20T08:15:04.541Z,17.60
2023-04-20T08:17:31.690Z,17.60
2023-04-20T08:19:58.794Z,17.60
2023-04-20T08:22:30.467Z,17.50
2023-04-20T08:24:58.076Z,17.50
2023-04-20T08:27:25.987Z,17.40
2023-04-20T08:29:52.980Z,17.50
2023-04-20T08:32:22.886Z,17.60
2023-04-20T08:34:50.647Z,17.60
2023-04-20T08:37:17.777Z,17.60
2023-04-20T08:39:44.758Z,17.60
2023-04-20T08:42:11.826Z,17.50
2023-04-20T08:44:38.882Z,17.60
2023-04-20T08:47:06.011Z,17.50
2023-04-20T08:49:33.973Z,17.50
2023-04-20T08:52:01.460Z,17.60
2023-04-20T08:54:28.464Z,17.60
2023-04-20T08:56:55.486Z,17.60
2023-04-20T08:59:22.538Z,17.40
2023-04-20T09:01:49.658Z,17.30
2023-04-20T09:04:25.127Z,17.30
2023-04-20T09:06:54.948Z,17.30
2023-04-20T09:09:27.838Z,17.40
2023-04-20T09:12:10.542Z,17.50
2023-04-20T09:14:45.136Z,17.40
2023-04-20T09:17:14.792Z,17.40
2023-04-20T09:19:45.446Z,17.50
2023-04-20T09:22:12.843Z,17.60
2023-04-20T09:24:41.345Z,17.60
2023-04-20T09:27:18.964Z,17.70
2023-04-20T09:30:01.587Z,17.60
2023-04-20T09:32:29.249Z,17.50
2023-04-20T09:34:57.167Z,17.60
2023-04-20T09:37:24.373Z,17.70
2023-04-20T09:39:51.909Z,17.70
2023-04-20T09:42:19.028Z,17.70
2023-04-20T09:44:46.195Z,17.70
2023-04-20T09:47:18.023Z,17.60
2023-04-20T09:49:48.287Z,17.50
2023-04-20T09:52:20.542Z,17.40
2023-04-20T09:54:47.815Z,17.30
2023-04-20T09:57:15.208Z,17.40
2023-04-20T09:59:47.130Z,17.40
2023-04-20T10:02:14.866Z,17.50
2023-04-20T10:04:59.396Z,17.60
2023-04-20T10:07:31.917Z,17.60
2023-04-20T10:10:14.716Z,17.60
2023-04-20T10:12:52.150Z,17.60
2023-04-20T10:15:20.445Z,17.70
2023-04-20T10:17:47.960Z,17.60
2023-04-20T10:20:29.105Z,17.70
2023-04-20T10:23:10.228Z,17.70
2023-04-20T10:25:37.805Z,17.60
2023-04-20T10:28:09.767Z,17.50
2023-04-20T10:30:37.975Z,17.50
2023-04-20T10:33:11.460Z,17.70
2023-04-20T10:35:55.137Z,17.80
2023-04-20T10:38:29.830Z,17.80
2023-04-20T10:40:57.178Z,17.70
2023-04-20T10:43:24.340Z,17.70
2023-04-20T10:45:51.868Z,17.60
2023-04-20T10:48:19.589Z,17.50
2023-04-20T10:50:46.680Z,17.50
2023-04-20T10:53:21.658Z,17.50
2023-04-20T10:55:58.660Z,17.50
2023-04-20T10:58:25.965Z,17.50
2023-04-20T11:01:01.206Z,17.50
2023-04-20T11:03:30.990Z,17.70
2023-04-20T11:06:01.910Z,17.70
2023-04-20T11:08:40.302Z,17.80
2023-04-20T11:11:21.379Z,17.80
2023-04-20T11:13:49.050Z,17.80
2023-04-20T11:16:17.919Z,17.70
2023-04-20T11:18:55.892Z,17.70
2023-04-20T11:21:23.312Z,17.80
2023-04-20T11:23:50.783Z,17.90
2023-04-20T11:26:18.226Z,18.00
2023-04-20T11:28:55.135Z,18.00
2023-04-20T11:31:23.619Z,17.90
2023-04-20T11:33:50.991Z,17.70
2023-04-20T11:36:26.791Z,17.50
2023-04-20T11:38:55.968Z,17.30
2023-04-20T11:41:23.393Z,17.20
2023-04-20T11:43:51.401Z,17.10
2023-04-20T11:46:20.688Z,17.00
2023-04-20T11:48:48.250Z,17.10
2023-04-20T11:51:15.694Z,17.00
2023-04-20T11:53:44.267Z,16.90
2023-04-20T11:56:11.346Z,16.90
2023-04-20T11:58:38.672Z,16.90
2023-04-20T12:01:05.848Z,17.00
2023-04-20T12:03:33.320Z,17.10
2023-04-20T12:06:00.804Z,17.00
2023-04-20T12:08:28.072Z,17.00
2023-04-20T12:10:56.728Z,17.10
2023-04-20T12:13:25.783Z,17.20
2023-04-20T12:15:52.804Z,17.10
2023-04-20T12:18:20.125Z,17.20
2023-04-20T12:20:47.363Z,17.20
2023-04-20T12:23:14.380Z,17.10
2023-04-20T12:25:41.407Z,17.20
2023-04-20T12:28:08.516Z,17.30
2023-04-20T12:30:35.807Z,17.40
2023-04-20T12:33:05.927Z,17.40
2023-04-20T12:35:32.946Z,17.00
2023-04-20T12:38:00.439Z,16.70
2023-04-20T12:40:27.457Z,16.50
2023-04-20T12:42:54.522Z,16.40
2023-04-20T12:45:21.735Z,16.20
2023-04-20T12:47:48.775Z,16.10
2023-04-20T12:50:15.962Z,16.10
2023-04-20T12:52:43.025Z,16.00
2023-04-20T12:55:11.409Z,16.00
2023-04-20T12:57:38.587Z,16.00
2023-04-20T13:00:06.552Z,15.90
2023-04-20T13:02:34.092Z,15.90
2023-04-20T13:05:01.226Z,15.80
2023-04-20T13:07:28.317Z,15.70
2023-04-20T13:09:55.341Z,15.70
2023-04-20T13:12:22.557Z,15.70
2023-04-20T13:14:49.709Z,15.60
2023-04-20T13:17:17.005Z,15.70
2023-04-20T13:19:46.463Z,15.60
2023-04-20T13:22:16.822Z,15.60
2023-04-20T13:24:46.280Z,15.60
2023-04-20T13:27:14.388Z,15.60
2023-04-20T13:29:41.626Z,15.70
2023-04-20T13:32:08.844Z,15.80
2023-04-20T13:34:35.870Z,15.80
2023-04-20T13:37:03.637Z,15.80
2023-04-20T13:39:30.695Z,15.80
2023-04-20T13:41:58.255Z,15.80
2023-04-20T13:44:25.485Z,15.70
2023-04-20T13:46:52.926Z,15.60
2023-04-20T13:49:22.898Z,15.60
2023-04-20T13:51:50.413Z,15.50
2023-04-20T13:54:17.859Z,15.60
2023-04-20T13:56:45.051Z,15.50
2023-04-20T13:59:12.676Z,15.60
2023-04-20T14:01:39.690Z,15.50
2023-04-20T14:04:06.887Z,15.40
2023-04-20T14:06:33.977Z,15.40
2023-04-20T14:09:01.257Z,15.40
2023-04-20T14:11:28.256Z,15.40
2023-04-20T14:13:55.568Z,15.50
2023-04-20T14:16:23.071Z,15.60
2023-04-20T14:18:50.150Z,15.60
2023-04-20T14:21:17.767Z,15.70
2023-04-20T14:23:47.242Z,15.70
2023-04-20T14:26:14.286Z,15.50
2023-04-20T14:28:41.667Z,15.50
2023-04-20T14:31:08.776Z,15.30
2023-04-20T14:33:35.749Z,15.30
2023-04-20T14:36:02.963Z,15.30
2023-04-20T14:38:29.963Z,15.30
2023-04-20T14:40:57.115Z,15.10
2023-04-20T14:43:24.180Z,14.80
2023-04-20T14:45:51.472Z,14.70
2023-04-20T14:48:18.969Z,14.70
2023-04-20T14:50:52.211Z,14.60
2023-04-20T14:53:20.636Z,14.60
2023-04-20T14:55:47.927Z,14.50
2023-04-20T14:58:18.665Z,14.50
2023-04-20T15:00:46.646Z,14.40
2023-04-20T15:03:13.950Z,14.50
2023-04-20T15:05:41.696Z,14.50
2023-04-20T15:08:08.875Z,14.40
2023-04-20T15:10:37.853Z,14.40
2023-04-20T15:13:06.073Z,14.30
2023-04-20T15:15:46.866Z,14.30
2023-04-20T15:18:15.975Z,14.30
2023-04-20T15:20:43.047Z,14.20
2023-04-20T15:23:10.130Z,14.20
2023-04-20T15:25:37.581Z,14.10
2023-04-20T15:28:04.763Z,14.00
2023-04-20T15:30:31.910Z,13.80
2023-04-20T15:33:04.926Z,13.70
2023-04-20T15:35:33.072Z,13.60
2023-04-20T15:38:00.540Z,13.50
2023-04-20T15:40:27.729Z,13.40
2023-04-20T15:42:56.041Z,13.30
2023-04-20T15:45:23.326Z,13.30
2023-04-20T15:47:52.433Z,13.20
2023-04-20T15:50:19.551Z,13.20
2023-04-20T15:52:49.888Z,13.10
2023-04-20T15:55:17.369Z,13.00
2023-04-20T15:57:44.892Z,13.00
2023-04-20T16:00:13.708Z,12.90
2023-04-20T16:02:41.042Z,12.80
2023-04-20T16:05:09.224Z,12.80
2023-04-20T16:07:36.342Z,12.80
2023-04-20T16:10:03.504Z,12.70
2023-04-20T16:12:30.557Z,12.70
2023-04-20T16:14:57.597Z,12.70
2023-04-20T16:17:24.618Z,12.60
2023-04-20T16:19:51.704Z,12.60
2023-04-20T16:22:20.413Z,12.50
2023-04-20T16:24:47.388Z,12.40
2023-04-20T16:27:14.641Z,12.40
2023-04-20T16:29:41.656Z,12.30
2023-04-20T16:32:08.734Z,12.20
2023-04-20T16:34:35.680Z,12.10
2023-04-20T16:37:02.698Z,12.00
2023-04-20T16:39:29.810Z,12.00
2023-04-20T16:41:57.425Z,11.90
2023-04-20T16:44:24.525Z,11.80
2023-04-20T16:46:52.045Z,11.80
2023-04-20T16:49:19.395Z,11.70
2023-04-20T16:51:46.653Z,11.60
2023-04-20T16:54:13.772Z,11.60
2023-04-20T16:56:41.288Z,11.50
2023-04-20T16:59:08.238Z,11.40
2023-04-20T17:01:35.270Z,11.30
2023-04-20T17:04:02.651Z,11.20
2023-04-20T17:06:29.761Z,11.10
2023-04-20T17:09:01.498Z,11.10
2023-04-20T17:11:28.510Z,11.00
2023-04-20T17:13:56.953Z,10.90
2023-04-20T17:16:24.003Z,10.90
2023-04-20T17:18:52.431Z,10.90
2023-04-20T17:21:19.529Z,10.90
2023-04-20T17:23:47.485Z,10.80
2023-04-20T17:26:14.566Z,10.70
2023-04-20T17:28:41.532Z,10.70
2023-04-20T17:31:08.771Z,10.60
2023-04-20T17:33:35.912Z,10.60
2023-04-20T17:36:02.996Z,10.60
2023-04-20T17:38:30.011Z,10.50
2023-04-20T17:40:57.034Z,10.50
2023-04-20T17:43:23.982Z,10.40
2023-04-20T17:45:51.085Z,10.40
2023-04-20T17:48:18.219Z,10.30
2023-04-20T17:50:49.539Z,10.20
2023-04-20T17:53:16.596Z,10.20
2023-04-20T17:55:43.849Z,10.20
2023-04-20T17:58:10.890Z,10.10
2023-04-20T18:00:37.890Z,10.10
2023-04-20T18:03:05.084Z,10.10
2023-04-20T18:05:32.065Z,10.00
2023-04-20T18:07:59.052Z,10.00
2023-04-20T18:10:26.264Z,10.00
2023-04-20T18:12:54.148Z,10.00
2023-04-20T18:15:21.253Z,10.00
2023-04-20T18:17:49.388Z,9.90
2023-04-20T18:20:16.675Z,9.90
2023-04-20T18:22:43.678Z,9.80
2023-04-20T18:25:10.909Z,9.80
2023-04-20T18:27:38.581Z,9.70
2023-04-20T18:30:07.058Z,9.60
2023-04-20T18:32:36.395Z,9.60
2023-04-20T18:35:04.167Z,9.60
2023-04-20T18:37:31.296Z,9.50
2023-04-20T18:39:58.849Z,9.50
2023-04-20T18:42:26.228Z,9.40
2023-04-20T18:44:54.038Z,9.40
2023-04-20T18:47:22.416Z,9.30
2023-04-20T18:49:49.552Z,9.20
2023-04-20T18:52:18.176Z,9.20
2023-04-20T18:54:46.575Z,9.20
2023-04-20T18:57:13.712Z,9.20
2023-04-20T18:59:40.833Z,9.20
2023-04-20T19:02:10.293Z,9.20
2023-04-20T19:04:37.469Z,9.10
2023-04-20T19:07:04.984Z,9.10
2023-04-20T19:09:32.133Z,9.10
2023-04-20T19:12:02.706Z,9.10
2023-04-20T19:14:29.673Z,9.10
2023-04-20T19:16:56.781Z,9.00
2023-04-20T19:19:24.004Z,8.90
2023-04-20T19:21:51.407Z,8.90
2023-04-20T19:24:18.665Z,8.80
2023-04-20T19:26:46.377Z,8.80
2023-04-20T19:29:13.783Z,8.80
2023-04-20T19:31:42.311Z,8.80
2023-04-20T19:34:09.404Z,8.80
2023-04-20T19:36:36.544Z,8.80
2023-04-20T19:39:04.235Z,8.80
2023-04-20T19:41:31.282Z,8.80
2023-04-20T19:43:59.595Z,8.80
2023-04-20T19:46:27.195Z,8.90
2023-04-20T19:48:54.256Z,8.90
2023-04-20T19:51:22.535Z,9.00
2023-04-20T19:53:49.600Z,9.00
2023-04-20T19:56:16.717Z,9.00
2023-04-20T19:58:43.737Z,9.00
2023-04-20T20:01:10.760Z,8.90
2023-04-20T20:03:37.942Z,8.90
2023-04-20T20:06:07.876Z,8.80
2023-04-20T20:08:35.719Z,8.70
2023-04-20T20:11:02.734Z,8.70
2023-04-20T20:13:29.999Z,8.60
2023-04-20T20:15:57.127Z,8.50
2023-04-20T20:18:24.463Z,8.40
2023-04-20T20:20:51.558Z,8.40
2023-04-20T20:23:18.595Z,8.40
2023-04-20T20:25:45.612Z,8.40
2023-04-20T20:28:12.751Z,8.30
2023-04-20T20:30:41.691Z,8.30
2023-04-20T20:33:08.826Z,8.20
2023-04-20T20:35:37.805Z,8.10
2023-04-20T20:38:08.209Z,8.00
2023-04-20T20:40:35.850Z,8.00
2023-04-20T20:43:03.870Z,7.90
2023-04-20T20:45:32.075Z,7.90
2023-04-20T20:47:59.545Z,7.90
2023-04-20T20:50:28.060Z,7.80
2023-04-20T20:52:55.167Z,7.80
2023-04-20T20:55:22.223Z,7.70
2023-04-20T20:57:49.216Z,7.50
2023-04-20T21:00:16.441Z,7.40
2023-04-20T21:02:43.611Z,7.40
2023-04-20T21:05:11.156Z,7.40
2023-04-20T21:07:38.910Z,7.30
2023-04-20T21:10:06.460Z,7.20
2023-04-20T21:12:33.579Z,7.10
2023-04-20T21:15:00.779Z,7.10
2023-04-20T21:17:27.922Z,7.10
2023-04-20T21:19:55.025Z,7.00
2023-04-20T21:22:22.704Z,7.00
2023-04-20T21:24:49.966Z,7.00
2023-04-20T21:27:16.997Z,6.90
2023-04-20T21:29:43.993Z,6.90
2023-04-20T21:32:11.200Z,6.80
2023-04-20T21:34:38.292Z,6.70
2023-04-20T21:37:05.894Z,6.70
2023-04-20T21:39:33.234Z,6.60
2023-04-20T21:42:01.658Z,6.50
2023-04-20T21:44:28.802Z,6.40
2023-04-20T21:46:55.933Z,6.40
2023-04-20T21:49:23.083Z,6.30
2023-04-20T21:51:50.133Z,6.10
2023-04-20T21:54:17.142Z,6.00
2023-04-20T21:56:44.254Z,5.90
2023-04-20T21:59:11.250Z,5.70
2023-04-20T22:01:38.322Z,5.60
2023-04-20T22:04:05.767Z,5.50
2023-04-20T22:06:33.148Z,5.40
2023-04-20T22:09:00.404Z,5.30
2023-04-20T22:11:27.446Z,5.20
2023-04-20T22:13:54.414Z,5.10
2023-04-20T22:16:21.947Z,5.10
2023-04-20T22:18:49.262Z,5.10
2023-04-20T22:21:16.411Z,5.00
2023-04-20T22:23:43.332Z,5.10
2023-04-20T22:26:10.249Z,5.00
2023-04-20T22:28:37.221Z,5.00
2023-04-20T22:31:04.298Z,4.90
2023-04-20T22:33:31.305Z,4.90
2023-04-20T22:35:58.502Z,4.80
2023-04-20T22:38:25.647Z,4.70
2023-04-20T22:40:54.027Z,4.60
2023-04-20T22:43:21.776Z,4.60
2023-04-20T22:45:49.013Z,4.50
2023-04-20T22:48:16.068Z,4.40
2023-04-20T22:50:43.533Z,4.40
2023-04-20T22:53:10.518Z,4.40
2023-04-20T22:55:37.559Z,4.40
2023-04-20T22:58:04.619Z,4.40
2023-04-20T23:00:31.689Z,4.30
2023-04-20T23:02:58.891Z,4.30
2023-04-20T23:05:26.676Z,4.20
2023-04-20T23:07:54.088Z,4.10
2023-04-20T23:10:21.367Z,4.10
2023-04-20T23:12:49.358Z,4.00
2023-04-20T23:15:16.406Z,4.00
2023-04-20T23:17:43.514Z,3.90
2023-04-20T23:20:13.922Z,3.90
2023-04-20T23:22:41.215Z,3.90
2023-04-20T23:25:10.006Z,3.80
2023-04-20T23:27:37.170Z,3.80
2023-04-20T23:30:04.627Z,3.70
2023-04-20T23:32:31.891Z,3.70
2023-04-20T23:34:59.097Z,3.70
2023-04-20T23:37:26.099Z,3.70
2023-04-20T23:39:53.082Z,3.60
2023-04-20T23:42:20.067Z,3.60
2023-04-20T23:44:47.056Z,3.50
2023-04-20T23:47:15.685Z,3.50
2023-04-20T23:49:42.663Z,3.50
2023-04-20T23:52:09.705Z,3.50
2023-04-20T23:54:36.672Z,3.50
2023-04-20T23:57:03.673Z,3.50
2023-04-20T23:59:31.361Z,3.50
